sensor_id;sensor_type;location;lat;lon;timestamp;temperature;humidity
11965;DHT22;6042;41.326;19.826;2022-10-04T00:02:35;16.00;99.90
11965;DHT22;6042;41.326;19.826;2022-10-04T00:05:06;16.00;99.90
11965;DHT22;6042;41.326;19.826;2022-10-04T00:07:39;15.90;99.90
11965;DHT22;6042;41.326;19.826;2022-10-04T00:10:17;15.80;99.90
11965;DHT22;6042;41.326;19.826;2022-10-04T00:12:50;15.80;99.90
11965;DHT22;6042;41.326;19.826;2022-10-04T00:15:21;15.90;99.90
11965;DHT22;6042;41.326;19.826;2022-10-04T00:18:17;15.90;99.90
11965;DHT22;6042;41.326;19.826;2022-10-04T00:20:57;15.80;99.90
11965;DHT22;6042;41.326;19.826;2022-10-04T00:23:29;15.70;99.90
11965;DHT22;6042;41.326;19.826;2022-10-04T00:26:14;15.60;99.90
11965;DHT22;6042;41.326;19.826;2022-10-04T00:28:45;15.60;99.90
11965;DHT22;6042;41.326;19.826;2022-10-04T00:31:20;15.70;99.90
11965;DHT22;6042;41.326;19.826;2022-10-04T00:33:52;15.60;99.90
11965;DHT22;6042;41.326;19.826;2022-10-04T00:36:38;15.60;99.90
11965;DHT22;6042;41.326;19.826;2022-10-04T00:39:26;15.50;99.90
11965;DHT22;6042;41.326;19.826;2022-10-04T00:42:18;15.50;99.90
11965;DHT22;6042;41.326;19.826;2022-10-04T00:44:53;15.50;99.90
11965;DHT22;6042;41.326;19.826;2022-10-04T00:47:29;15.50;99.90
11965;DHT22;6042;41.326;19.826;2022-10-04T00:50:07;15.50;99.90
11965;DHT22;6042;41.326;19.826;2022-10-04T00:52:43;15.50;99.90
11965;DHT22;6042;41.326;19.826;2022-10-04T00:55:22;15.60;99.90
11965;DHT22;6042;41.326;19.826;2022-10-04T00:57:55;15.60;99.90
11965;DHT22;6042;41.326;19.826;2022-10-04T01:00:28;15.50;99.90
11965;DHT22;6042;41.326;19.826;2022-10-04T01:03:01;15.40;99.90
11965;DHT22;6042;41.326;19.826;2022-10-04T01:05:34;15.40;99.90
11965;DHT22;6042;41.326;19.826;2022-10-04T01:08:08;15.30;99.90
11965;DHT22;6042;41.326;19.826;2022-10-04T01:10:40;15.40;99.90
11965;DHT22;6042;41.326;19.826;2022-10-04T01:13:15;15.30;99.90
11965;DHT22;6042;41.326;19.826;2022-10-04T01:15:51;15.20;99.90
11965;DHT22;6042;41.326;19.826;2022-10-04T01:18:30;15.20;99.90
11965;DHT22;6042;41.326;19.826;2022-10-04T01:21:02;15.10;99.90
11965;DHT22;6042;41.326;19.826;2022-10-04T01:23:41;15.20;99.90
11965;DHT22;6042;41.326;19.826;2022-10-04T01:26:38;15.20;99.90
11965;DHT22;6042;41.326;19.826;2022-10-04T01:29:13;15.20;99.90
11965;DHT22;6042;41.326;19.826;2022-10-04T01:31:44;15.10;99.90
11965;DHT22;6042;41.326;19.826;2022-10-04T01:34:14;15.10;99.90
11965;DHT22;6042;41.326;19.826;2022-10-04T01:36:44;15.20;99.90
11965;DHT22;6042;41.326;19.826;2022-10-04T01:39:17;15.30;99.90
11965;DHT22;6042;41.326;19.826;2022-10-04T01:41:49;15.20;99.90
11965;DHT22;6042;41.326;19.826;2022-10-04T01:44:26;15.10;99.90
11965;DHT22;6042;41.326;19.826;2022-10-04T01:46:58;15.00;99.90
11965;DHT22;6042;41.326;19.826;2022-10-04T01:49:30;15.00;99.90
11965;DHT22;6042;41.326;19.826;2022-10-04T01:52:02;15.00;99.90
11965;DHT22;6042;41.326;19.826;2022-10-04T01:54:35;15.00;99.90
11965;DHT22;6042;41.326;19.826;2022-10-04T01:57:11;14.90;99.90
11965;DHT22;6042;41.326;19.826;2022-10-04T01:59:51;14.80;99.90
11965;DHT22;6042;41.326;19.826;2022-10-04T02:02:25;14.80;99.90
11965;DHT22;6042;41.326;19.826;2022-10-04T02:04:57;14.80;99.90
11965;DHT22;6042;41.326;19.826;2022-10-04T02:07:29;14.80;99.90
11965;DHT22;6042;41.326;19.826;2022-10-04T02:10:03;14.80;99.90
11965;DHT22;6042;41.326;19.826;2022-10-04T02:12:33;14.80;99.90
11965;DHT22;6042;41.326;19.826;2022-10-04T02:15:05;14.80;99.90
11965;DHT22;6042;41.326;19.826;2022-10-04T02:17:39;14.80;99.90
11965;DHT22;6042;41.326;19.826;2022-10-04T02:20:13;14.70;99.90
11965;DHT22;6042;41.326;19.826;2022-10-04T02:22:43;14.70;99.90
11965;DHT22;6042;41.326;19.826;2022-10-04T02:25:15;14.70;99.90
11965;DHT22;6042;41.326;19.826;2022-10-04T02:27:45;14.70;99.90
11965;DHT22;6042;41.326;19.826;2022-10-04T02:30:14;14.70;99.90
11965;DHT22;6042;41.326;19.826;2022-10-04T02:32:43;14.60;99.90
11965;DHT22;6042;41.326;19.826;2022-10-04T02:35:28;14.60;99.90
11965;DHT22;6042;41.326;19.826;2022-10-04T02:38:03;14.70;99.90
11965;DHT22;6042;41.326;19.826;2022-10-04T02:40:40;14.70;99.90
11965;DHT22;6042;41.326;19.826;2022-10-04T02:43:13;14.60;99.90
11965;DHT22;6042;41.326;19.826;2022-10-04T02:45:49;14.60;99.90
11965;DHT22;6042;41.326;19.826;2022-10-04T02:48:28;14.60;99.90
11965;DHT22;6042;41.326;19.826;2022-10-04T02:51:05;14.60;99.90
11965;DHT22;6042;41.326;19.826;2022-10-04T02:53:41;14.60;99.90
11965;DHT22;6042;41.326;19.826;2022-10-04T02:56:16;14.50;99.90
11965;DHT22;6042;41.326;19.826;2022-10-04T02:58:46;14.50;99.90
11965;DHT22;6042;41.326;19.826;2022-10-04T03:01:23;14.50;99.90
11965;DHT22;6042;41.326;19.826;2022-10-04T03:03:54;14.50;99.90
11965;DHT22;6042;41.326;19.826;2022-10-04T03:06:27;14.50;99.90
11965;DHT22;6042;41.326;19.826;2022-10-04T03:09:01;14.40;99.90
11965;DHT22;6042;41.326;19.826;2022-10-04T03:11:35;14.40;99.90
11965;DHT22;6042;41.326;19.826;2022-10-04T03:14:08;14.50;99.90
11965;DHT22;6042;41.326;19.826;2022-10-04T03:16:43;14.40;99.90
11965;DHT22;6042;41.326;19.826;2022-10-04T03:19:15;14.40;99.90
11965;DHT22;6042;41.326;19.826;2022-10-04T03:21:47;14.40;99.90
11965;DHT22;6042;41.326;19.826;2022-10-04T03:24:20;14.40;99.90
11965;DHT22;6042;41.326;19.826;2022-10-04T03:26:54;14.20;99.90
11965;DHT22;6042;41.326;19.826;2022-10-04T03:29:26;14.10;99.90
11965;DHT22;6042;41.326;19.826;2022-10-04T03:31:56;14.00;99.90
11965;DHT22;6042;41.326;19.826;2022-10-04T03:34:32;14.10;99.90
11965;DHT22;6042;41.326;19.826;2022-10-04T03:37:02;14.20;99.90
11965;DHT22;6042;41.326;19.826;2022-10-04T03:39:36;14.10;99.90
11965;DHT22;6042;41.326;19.826;2022-10-04T03:42:10;14.10;99.90
11965;DHT22;6042;41.326;19.826;2022-10-04T03:44:40;14.10;99.90
11965;DHT22;6042;41.326;19.826;2022-10-04T03:47:10;14.10;99.90
11965;DHT22;6042;41.326;19.826;2022-10-04T03:49:40;14.00;99.90
11965;DHT22;6042;41.326;19.826;2022-10-04T03:52:19;14.00;99.90
11965;DHT22;6042;41.326;19.826;2022-10-04T03:54:51;14.10;99.90
11965;DHT22;6042;41.326;19.826;2022-10-04T03:57:22;14.10;99.90
11965;DHT22;6042;41.326;19.826;2022-10-04T03:59:51;14.10;99.90
11965;DHT22;6042;41.326;19.826;2022-10-04T04:02:28;14.20;99.90
11965;DHT22;6042;41.326;19.826;2022-10-04T04:05:05;14.20;99.90
11965;DHT22;6042;41.326;19.826;2022-10-04T04:07:38;14.10;99.90
11965;DHT22;6042;41.326;19.826;2022-10-04T04:10:16;14.00;99.90
11965;DHT22;6042;41.326;19.826;2022-10-04T04:12:52;13.90;99.90
11965;DHT22;6042;41.326;19.826;2022-10-04T04:15:27;13.90;99.90
11965;DHT22;6042;41.326;19.826;2022-10-04T04:17:59;13.90;99.90
11965;DHT22;6042;41.326;19.826;2022-10-04T04:20:31;14.00;99.90
11965;DHT22;6042;41.326;19.826;2022-10-04T04:23:03;14.10;99.90
11965;DHT22;6042;41.326;19.826;2022-10-04T04:25:34;14.10;99.90
11965;DHT22;6042;41.326;19.826;2022-10-04T04:28:18;14.10;99.90
11965;DHT22;6042;41.326;19.826;2022-10-04T04:30:51;14.10;99.90
11965;DHT22;6042;41.326;19.826;2022-10-04T04:33:25;14.00;99.90
11965;DHT22;6042;41.326;19.826;2022-10-04T04:36:02;13.90;99.90
11965;DHT22;6042;41.326;19.826;2022-10-04T04:38:32;13.90;99.90
11965;DHT22;6042;41.326;19.826;2022-10-04T04:41:07;13.80;99.90
11965;DHT22;6042;41.326;19.826;2022-10-04T04:43:42;13.90;99.90
11965;DHT22;6042;41.326;19.826;2022-10-04T04:46:11;13.90;99.90
11965;DHT22;6042;41.326;19.826;2022-10-04T04:48:58;13.90;99.90
11965;DHT22;6042;41.326;19.826;2022-10-04T04:51:30;13.90;99.90
11965;DHT22;6042;41.326;19.826;2022-10-04T04:54:01;13.80;99.90
11965;DHT22;6042;41.326;19.826;2022-10-04T04:56:31;13.60;99.90
11965;DHT22;6042;41.326;19.826;2022-10-04T04:59:03;13.50;99.90
11965;DHT22;6042;41.326;19.826;2022-10-04T05:01:38;13.50;99.90
11965;DHT22;6042;41.326;19.826;2022-10-04T05:04:17;13.50;99.90
11965;DHT22;6042;41.326;19.826;2022-10-04T05:06:48;13.60;99.90
11965;DHT22;6042;41.326;19.826;2022-10-04T05:09:29;13.70;99.90
11965;DHT22;6042;41.326;19.826;2022-10-04T05:12:02;13.70;99.90
11965;DHT22;6042;41.326;19.826;2022-10-04T05:14:37;13.70;99.90
11965;DHT22;6042;41.326;19.826;2022-10-04T05:17:13;13.80;99.90
11965;DHT22;6042;41.326;19.826;2022-10-04T05:19:43;13.90;99.90
11965;DHT22;6042;41.326;19.826;2022-10-04T05:22:16;14.00;99.90
11965;DHT22;6042;41.326;19.826;2022-10-04T05:24:49;14.10;99.90
11965;DHT22;6042;41.326;19.826;2022-10-04T05:27:26;14.10;99.90
11965;DHT22;6042;41.326;19.826;2022-10-04T05:30:04;14.10;99.90
11965;DHT22;6042;41.326;19.826;2022-10-04T05:32:42;14.10;99.90
11965;DHT22;6042;41.326;19.826;2022-10-04T05:35:16;14.00;99.90
11965;DHT22;6042;41.326;19.826;2022-10-04T05:37:59;14.00;99.90
11965;DHT22;6042;41.326;19.826;2022-10-04T05:40:36;13.90;99.90
11965;DHT22;6042;41.326;19.826;2022-10-04T05:43:26;14.00;99.90
11965;DHT22;6042;41.326;19.826;2022-10-04T05:46:18;14.10;99.90
11965;DHT22;6042;41.326;19.826;2022-10-04T05:48:52;14.20;99.90
11965;DHT22;6042;41.326;19.826;2022-10-04T05:51:23;14.40;99.90
11965;DHT22;6042;41.326;19.826;2022-10-04T05:53:53;14.40;99.90
11965;DHT22;6042;41.326;19.826;2022-10-04T05:56:48;14.50;99.90
11965;DHT22;6042;41.326;19.826;2022-10-04T05:59:42;14.70;99.90
11965;DHT22;6042;41.326;19.826;2022-10-04T06:02:26;14.80;99.90
11965;DHT22;6042;41.326;19.826;2022-10-04T06:05:08;14.80;99.90
11965;DHT22;6042;41.326;19.826;2022-10-04T06:07:41;15.00;99.90
11965;DHT22;6042;41.326;19.826;2022-10-04T06:10:40;15.00;99.90
11965;DHT22;6042;41.326;19.826;2022-10-04T06:13:21;15.20;99.90
11965;DHT22;6042;41.326;19.826;2022-10-04T06:16:14;15.30;99.90
11965;DHT22;6042;41.326;19.826;2022-10-04T06:19:16;15.40;99.90
11965;DHT22;6042;41.326;19.826;2022-10-04T06:22:01;15.40;99.90
11965;DHT22;6042;41.326;19.826;2022-10-04T06:24:34;15.50;99.90
11965;DHT22;6042;41.326;19.826;2022-10-04T06:27:10;15.60;99.90
11965;DHT22;6042;41.326;19.826;2022-10-04T06:29:43;15.70;99.90
11965;DHT22;6042;41.326;19.826;2022-10-04T06:35:38;15.90;99.90
11965;DHT22;6042;41.326;19.826;2022-10-04T06:38:27;15.90;99.90
11965;DHT22;6042;41.326;19.826;2022-10-04T06:41:39;16.00;99.90
11965;DHT22;6042;41.326;19.826;2022-10-04T06:44:47;16.20;99.90
11965;DHT22;6042;41.326;19.826;2022-10-04T06:47:31;16.10;99.90
11965;DHT22;6042;41.326;19.826;2022-10-04T06:50:15;16.20;99.90
11965;DHT22;6042;41.326;19.826;2022-10-04T06:53:03;16.40;99.90
11965;DHT22;6042;41.326;19.826;2022-10-04T06:55:50;16.50;99.90
11965;DHT22;6042;41.326;19.826;2022-10-04T07:03:40;16.80;99.90
11965;DHT22;6042;41.326;19.826;2022-10-04T07:06:22;17.00;97.70
11965;DHT22;6042;41.326;19.826;2022-10-04T07:08:53;17.10;96.70
11965;DHT22;6042;41.326;19.826;2022-10-04T07:11:28;17.10;95.80
11965;DHT22;6042;41.326;19.826;2022-10-04T07:14:04;17.10;96.40
11965;DHT22;6042;41.326;19.826;2022-10-04T07:16:42;17.30;96.00
11965;DHT22;6042;41.326;19.826;2022-10-04T07:19:25;17.30;96.60
11965;DHT22;6042;41.326;19.826;2022-10-04T07:22:00;17.60;95.10
11965;DHT22;6042;41.326;19.826;2022-10-04T07:24:43;17.70;94.80
11965;DHT22;6042;41.326;19.826;2022-10-04T07:27:16;17.70;94.70
11965;DHT22;6042;41.326;19.826;2022-10-04T07:29:50;17.80;94.60
11965;DHT22;6042;41.326;19.826;2022-10-04T07:32:21;17.80;94.20
11965;DHT22;6042;41.326;19.826;2022-10-04T07:34:53;17.90;94.90
11965;DHT22;6042;41.326;19.826;2022-10-04T07:37:25;18.00;95.60
11965;DHT22;6042;41.326;19.826;2022-10-04T07:40:00;18.00;95.60
11965;DHT22;6042;41.326;19.826;2022-10-04T07:42:32;18.20;94.70
11965;DHT22;6042;41.326;19.826;2022-10-04T07:45:11;18.40;94.30
11965;DHT22;6042;41.326;19.826;2022-10-04T07:47:42;18.40;93.90
11965;DHT22;6042;41.326;19.826;2022-10-04T07:50:25;18.50;93.00
11965;DHT22;6042;41.326;19.826;2022-10-04T07:52:58;18.60;93.40
11965;DHT22;6042;41.326;19.826;2022-10-04T07:55:48;18.60;90.40
11965;DHT22;6042;41.326;19.826;2022-10-04T07:58:26;18.60;87.00
11965;DHT22;6042;41.326;19.826;2022-10-04T08:00:58;18.60;85.70
11965;DHT22;6042;41.326;19.826;2022-10-04T08:06:33;18.80;86.90
11965;DHT22;6042;41.326;19.826;2022-10-04T08:09:22;18.90;85.70
11965;DHT22;6042;41.326;19.826;2022-10-04T08:12:01;19.00;85.60
11965;DHT22;6042;41.326;19.826;2022-10-04T08:14:47;19.00;83.80
11965;DHT22;6042;41.326;19.826;2022-10-04T08:17:30;19.10;83.70
11965;DHT22;6042;41.326;19.826;2022-10-04T08:23:24;19.20;82.60
11965;DHT22;6042;41.326;19.826;2022-10-04T08:26:07;19.30;83.70
11965;DHT22;6042;41.326;19.826;2022-10-04T08:28:47;19.30;84.60
11965;DHT22;6042;41.326;19.826;2022-10-04T08:31:45;19.40;82.60
11965;DHT22;6042;41.326;19.826;2022-10-04T08:34:32;19.30;81.30
11965;DHT22;6042;41.326;19.826;2022-10-04T08:37:16;19.40;82.50
11965;DHT22;6042;41.326;19.826;2022-10-04T08:39:54;19.30;81.50
11965;DHT22;6042;41.326;19.826;2022-10-04T08:49:16;19.40;84.00
11965;DHT22;6042;41.326;19.826;2022-10-04T08:55:20;19.60;80.40
11965;DHT22;6042;41.326;19.826;2022-10-04T08:58:27;19.50;81.00
11965;DHT22;6042;41.326;19.826;2022-10-04T09:01:09;19.60;81.00
11965;DHT22;6042;41.326;19.826;2022-10-04T09:06:57;19.80;82.90
11965;DHT22;6042;41.326;19.826;2022-10-04T09:10:01;19.90;78.90
11965;DHT22;6042;41.326;19.826;2022-10-04T09:12:42;19.80;80.90
11965;DHT22;6042;41.326;19.826;2022-10-04T09:15:24;19.60;81.50
11965;DHT22;6042;41.326;19.826;2022-10-04T09:18:06;19.70;82.80
11965;DHT22;6042;41.326;19.826;2022-10-04T09:20:53;19.80;82.20
11965;DHT22;6042;41.326;19.826;2022-10-04T09:26:38;19.80;81.20
11965;DHT22;6042;41.326;19.826;2022-10-04T09:29:35;19.90;81.20
11965;DHT22;6042;41.326;19.826;2022-10-04T09:38:20;20.10;77.60
11965;DHT22;6042;41.326;19.826;2022-10-04T09:41:20;20.10;77.90
11965;DHT22;6042;41.326;19.826;2022-10-04T09:47:07;20.10;77.10
11965;DHT22;6042;41.326;19.826;2022-10-04T09:50:09;20.10;78.60
11965;DHT22;6042;41.326;19.826;2022-10-04T09:52:49;20.20;78.60
11965;DHT22;6042;41.326;19.826;2022-10-04T09:55:31;20.20;78.20
11965;DHT22;6042;41.326;19.826;2022-10-04T09:58:22;20.20;74.50
11965;DHT22;6042;41.326;19.826;2022-10-04T10:01:01;20.20;74.50
11965;DHT22;6042;41.326;19.826;2022-10-04T10:06:46;20.40;71.90
11965;DHT22;6042;41.326;19.826;2022-10-04T10:09:24;20.40;73.80
11965;DHT22;6042;41.326;19.826;2022-10-04T10:12:42;20.40;74.90
11965;DHT22;6042;41.326;19.826;2022-10-04T10:15:43;20.60;72.10
11965;DHT22;6042;41.326;19.826;2022-10-04T10:18:32;20.70;72.20
11965;DHT22;6042;41.326;19.826;2022-10-04T10:21:29;20.70;72.40
11965;DHT22;6042;41.326;19.826;2022-10-04T10:26:59;20.90;71.60
11965;DHT22;6042;41.326;19.826;2022-10-04T10:29:56;21.00;71.80
11965;DHT22;6042;41.326;19.826;2022-10-04T10:35:43;21.40;68.00
11965;DHT22;6042;41.326;19.826;2022-10-04T10:38:33;21.70;69.00
11965;DHT22;6042;41.326;19.826;2022-10-04T10:41:23;21.90;68.30
11965;DHT22;6042;41.326;19.826;2022-10-04T10:44:07;22.00;67.40
11965;DHT22;6042;41.326;19.826;2022-10-04T10:46:56;22.00;68.40
11965;DHT22;6042;41.326;19.826;2022-10-04T10:49:41;22.00;68.30
11965;DHT22;6042;41.326;19.826;2022-10-04T10:52:40;22.20;68.40
11965;DHT22;6042;41.326;19.826;2022-10-04T10:55:28;22.20;67.10
11965;DHT22;6042;41.326;19.826;2022-10-04T11:01:28;22.30;64.10
11965;DHT22;6042;41.326;19.826;2022-10-04T11:04:20;22.20;64.70
11965;DHT22;6042;41.326;19.826;2022-10-04T11:07:13;22.10;64.40
11965;DHT22;6042;41.326;19.826;2022-10-04T11:10:02;22.20;64.50
11965;DHT22;6042;41.326;19.826;2022-10-04T11:12:55;22.20;64.20
11965;DHT22;6042;41.326;19.826;2022-10-04T11:19:05;22.50;64.80
11965;DHT22;6042;41.326;19.826;2022-10-04T11:22:10;22.80;64.70
11965;DHT22;6042;41.326;19.826;2022-10-04T11:25:12;22.90;62.70
11965;DHT22;6042;41.326;19.826;2022-10-04T11:27:49;22.90;61.60
11965;DHT22;6042;41.326;19.826;2022-10-04T11:30:25;22.90;60.10
11965;DHT22;6042;41.326;19.826;2022-10-04T11:39:19;22.50;64.20
11965;DHT22;6042;41.326;19.826;2022-10-04T11:41:55;22.80;63.70
11965;DHT22;6042;41.326;19.826;2022-10-04T11:44:54;22.90;63.40
11965;DHT22;6042;41.326;19.826;2022-10-04T11:47:48;23.20;63.70
11965;DHT22;6042;41.326;19.826;2022-10-04T11:50:32;23.30;61.80
11965;DHT22;6042;41.326;19.826;2022-10-04T11:56:29;23.50;62.40
11965;DHT22;6042;41.326;19.826;2022-10-04T11:59:19;23.40;61.60
11965;DHT22;6042;41.326;19.826;2022-10-04T12:05:41;23.10;62.10
11965;DHT22;6042;41.326;19.826;2022-10-04T12:08:25;23.20;62.80
11965;DHT22;6042;41.326;19.826;2022-10-04T12:14:42;23.20;63.70
11965;DHT22;6042;41.326;19.826;2022-10-04T12:20:50;23.30;64.60
11965;DHT22;6042;41.326;19.826;2022-10-04T12:23:41;23.90;64.60
11965;DHT22;6042;41.326;19.826;2022-10-04T12:26:50;24.20;61.70
11965;DHT22;6042;41.326;19.826;2022-10-04T12:32:33;23.80;63.00
11965;DHT22;6042;41.326;19.826;2022-10-04T12:35:17;23.90;63.20
11965;DHT22;6042;41.326;19.826;2022-10-04T12:38:07;24.00;63.00
11965;DHT22;6042;41.326;19.826;2022-10-04T12:40:45;23.90;62.60
11965;DHT22;6042;41.326;19.826;2022-10-04T12:43:21;23.70;63.50
11965;DHT22;6042;41.326;19.826;2022-10-04T12:46:02;23.80;63.30
11965;DHT22;6042;41.326;19.826;2022-10-04T12:48:46;23.70;62.80
11965;DHT22;6042;41.326;19.826;2022-10-04T12:51:30;23.70;63.70
11965;DHT22;6042;41.326;19.826;2022-10-04T12:54:11;23.90;63.70
11965;DHT22;6042;41.326;19.826;2022-10-04T12:56:45;24.10;63.80
11965;DHT22;6042;41.326;19.826;2022-10-04T13:02:35;24.10;62.30
11965;DHT22;6042;41.326;19.826;2022-10-04T13:05:12;23.60;63.40
11965;DHT22;6042;41.326;19.826;2022-10-04T13:07:57;23.60;63.60
11965;DHT22;6042;41.326;19.826;2022-10-04T13:13:49;24.00;63.20
11965;DHT22;6042;41.326;19.826;2022-10-04T13:16:32;24.00;63.70
11965;DHT22;6042;41.326;19.826;2022-10-04T13:19:32;24.00;62.30
11965;DHT22;6042;41.326;19.826;2022-10-04T13:22:18;24.10;62.70
11965;DHT22;6042;41.326;19.826;2022-10-04T13:25:19;24.30;62.70
11965;DHT22;6042;41.326;19.826;2022-10-04T13:27:55;24.20;62.20
11965;DHT22;6042;41.326;19.826;2022-10-04T13:30:28;23.80;63.40
11965;DHT22;6042;41.326;19.826;2022-10-04T13:33:10;23.80;63.30
11965;DHT22;6042;41.326;19.826;2022-10-04T13:35:46;23.60;64.20
11965;DHT22;6042;41.326;19.826;2022-10-04T13:38:35;23.80;64.50
11965;DHT22;6042;41.326;19.826;2022-10-04T13:41:14;24.10;63.20
11965;DHT22;6042;41.326;19.826;2022-10-04T13:47:14;23.40;64.20
11965;DHT22;6042;41.326;19.826;2022-10-04T13:50:05;23.10;65.30
11965;DHT22;6042;41.326;19.826;2022-10-04T13:52:42;23.30;65.50
11965;DHT22;6042;41.326;19.826;2022-10-04T13:55:37;23.30;65.60
11965;DHT22;6042;41.326;19.826;2022-10-04T13:58:33;23.00;65.40
11965;DHT22;6042;41.326;19.826;2022-10-04T14:01:40;22.90;64.90
11965;DHT22;6042;41.326;19.826;2022-10-04T14:04:39;22.70;65.10
11965;DHT22;6042;41.326;19.826;2022-10-04T14:07:35;22.80;65.20
11965;DHT22;6042;41.326;19.826;2022-10-04T14:16:51;22.70;66.90
11965;DHT22;6042;41.326;19.826;2022-10-04T14:19:50;22.60;67.00
11965;DHT22;6042;41.326;19.826;2022-10-04T14:22:50;22.50;67.50
11965;DHT22;6042;41.326;19.826;2022-10-04T14:25:52;22.40;68.50
11965;DHT22;6042;41.326;19.826;2022-10-04T14:34:50;22.20;69.20
11965;DHT22;6042;41.326;19.826;2022-10-04T14:37:48;22.10;69.80
11965;DHT22;6042;41.326;19.826;2022-10-04T14:40:44;22.10;70.20
11965;DHT22;6042;41.326;19.826;2022-10-04T14:43:46;22.10;70.50
11965;DHT22;6042;41.326;19.826;2022-10-04T14:46:25;22.00;70.80
11965;DHT22;6042;41.326;19.826;2022-10-04T14:49:09;21.90;70.80
11965;DHT22;6042;41.326;19.826;2022-10-04T14:51:51;21.90;70.60
11965;DHT22;6042;41.326;19.826;2022-10-04T14:54:39;21.70;71.40
11965;DHT22;6042;41.326;19.826;2022-10-04T14:57:15;21.70;71.40
11965;DHT22;6042;41.326;19.826;2022-10-04T15:12:25;21.50;72.90
11965;DHT22;6042;41.326;19.826;2022-10-04T15:15:39;21.30;74.00
11965;DHT22;6042;41.326;19.826;2022-10-04T15:18:25;21.30;73.30
11965;DHT22;6042;41.326;19.826;2022-10-04T15:21:01;21.20;73.40
11965;DHT22;6042;41.326;19.826;2022-10-04T15:23:36;21.10;73.50
11965;DHT22;6042;41.326;19.826;2022-10-04T15:26:42;21.00;73.40
11965;DHT22;6042;41.326;19.826;2022-10-04T15:29:22;21.00;73.60
11965;DHT22;6042;41.326;19.826;2022-10-04T15:32:03;20.90;73.90
11965;DHT22;6042;41.326;19.826;2022-10-04T15:34:38;20.90;74.70
11965;DHT22;6042;41.326;19.826;2022-10-04T15:37:13;20.90;74.70
11965;DHT22;6042;41.326;19.826;2022-10-04T15:40:02;20.80;75.00
11965;DHT22;6042;41.326;19.826;2022-10-04T15:42:38;20.90;75.30
11965;DHT22;6042;41.326;19.826;2022-10-04T15:45:27;20.80;75.80
11965;DHT22;6042;41.326;19.826;2022-10-04T15:48:09;20.80;75.80
11965;DHT22;6042;41.326;19.826;2022-10-04T15:51:01;20.80;76.90
11965;DHT22;6042;41.326;19.826;2022-10-04T15:54:03;20.80;76.60
11965;DHT22;6042;41.326;19.826;2022-10-04T15:56:47;20.90;75.80
11965;DHT22;6042;41.326;19.826;2022-10-04T15:59:44;20.90;75.90
11965;DHT22;6042;41.326;19.826;2022-10-04T16:02:43;20.70;76.60
11965;DHT22;6042;41.326;19.826;2022-10-04T16:05:23;20.60;76.70
11965;DHT22;6042;41.326;19.826;2022-10-04T16:08:09;20.40;77.60
11965;DHT22;6042;41.326;19.826;2022-10-04T16:10:59;20.30;78.40
11965;DHT22;6042;41.326;19.826;2022-10-04T16:13:40;20.30;77.60
11965;DHT22;6042;41.326;19.826;2022-10-04T16:19:23;20.20;78.60
11965;DHT22;6042;41.326;19.826;2022-10-04T16:22:09;20.10;78.80
11965;DHT22;6042;41.326;19.826;2022-10-04T16:24:52;20.00;79.50
11965;DHT22;6042;41.326;19.826;2022-10-04T16:27:41;19.90;79.60
11965;DHT22;6042;41.326;19.826;2022-10-04T16:30:16;19.90;79.90
11965;DHT22;6042;41.326;19.826;2022-10-04T16:33:25;19.80;80.30
11965;DHT22;6042;41.326;19.826;2022-10-04T16:36:06;19.70;80.60
11965;DHT22;6042;41.326;19.826;2022-10-04T16:38:43;19.60;81.20
11965;DHT22;6042;41.326;19.826;2022-10-04T16:41:39;19.40;81.60
11965;DHT22;6042;41.326;19.826;2022-10-04T16:44:31;19.40;81.70
11965;DHT22;6042;41.326;19.826;2022-10-04T16:47:14;19.40;81.40
11965;DHT22;6042;41.326;19.826;2022-10-04T16:49:49;19.30;82.10
11965;DHT22;6042;41.326;19.826;2022-10-04T16:52:41;19.30;82.30
11965;DHT22;6042;41.326;19.826;2022-10-04T16:55:33;19.20;82.60
11965;DHT22;6042;41.326;19.826;2022-10-04T16:58:34;19.20;82.60
11965;DHT22;6042;41.326;19.826;2022-10-04T17:05:00;19.10;83.00
11965;DHT22;6042;41.326;19.826;2022-10-04T17:07:40;19.00;83.30
11965;DHT22;6042;41.326;19.826;2022-10-04T17:10:26;18.90;83.70
11965;DHT22;6042;41.326;19.826;2022-10-04T17:13:06;18.80;83.90
11965;DHT22;6042;41.326;19.826;2022-10-04T17:15:46;18.80;84.40
11965;DHT22;6042;41.326;19.826;2022-10-04T17:18:30;18.70;84.50
11965;DHT22;6042;41.326;19.826;2022-10-04T17:21:09;18.70;84.90
11965;DHT22;6042;41.326;19.826;2022-10-04T17:26:57;18.50;85.60
11965;DHT22;6042;41.326;19.826;2022-10-04T17:29:42;18.60;86.30
11965;DHT22;6042;41.326;19.826;2022-10-04T17:32:22;18.60;85.20
11965;DHT22;6042;41.326;19.826;2022-10-04T17:35:10;18.60;87.80
11965;DHT22;6042;41.326;19.826;2022-10-04T17:37:43;18.60;89.20
11965;DHT22;6042;41.326;19.826;2022-10-04T17:40:31;18.60;90.10
11965;DHT22;6042;41.326;19.826;2022-10-04T17:43:10;18.80;91.10
11965;DHT22;6042;41.326;19.826;2022-10-04T17:45:55;18.80;91.70
11965;DHT22;6042;41.326;19.826;2022-10-04T17:48:28;18.80;91.70
11965;DHT22;6042;41.326;19.826;2022-10-04T17:51:40;18.60;90.40
11965;DHT22;6042;41.326;19.826;2022-10-04T17:54:31;18.60;93.00
11965;DHT22;6042;41.326;19.826;2022-10-04T17:57:24;18.50;93.40
11965;DHT22;6042;41.326;19.826;2022-10-04T17:59:58;18.30;93.80
11965;DHT22;6042;41.326;19.826;2022-10-04T18:03:09;18.10;93.80
11965;DHT22;6042;41.326;19.826;2022-10-04T18:05:51;18.10;94.80
11965;DHT22;6042;41.326;19.826;2022-10-04T18:08:34;18.00;94.10
11965;DHT22;6042;41.326;19.826;2022-10-04T18:11:16;17.90;94.00
11965;DHT22;6042;41.326;19.826;2022-10-04T18:13:50;17.70;94.40
11965;DHT22;6042;41.326;19.826;2022-10-04T18:16:25;17.70;94.90
11965;DHT22;6042;41.326;19.826;2022-10-04T18:18:56;17.70;95.50
11965;DHT22;6042;41.326;19.826;2022-10-04T18:21:29;17.60;95.80
11965;DHT22;6042;41.326;19.826;2022-10-04T18:24:00;17.50;96.30
11965;DHT22;6042;41.326;19.826;2022-10-04T18:26:54;17.50;97.30
11965;DHT22;6042;41.326;19.826;2022-10-04T18:29:37;17.30;99.00
11965;DHT22;6042;41.326;19.826;2022-10-04T18:32:29;17.20;99.90
11965;DHT22;6042;41.326;19.826;2022-10-04T18:35:01;17.20;99.90
11965;DHT22;6042;41.326;19.826;2022-10-04T18:37:32;17.10;99.90
11965;DHT22;6042;41.326;19.826;2022-10-04T18:40:15;17.00;99.90
11965;DHT22;6042;41.326;19.826;2022-10-04T18:42:52;17.00;99.90
11965;DHT22;6042;41.326;19.826;2022-10-04T18:45:27;17.00;99.90
11965;DHT22;6042;41.326;19.826;2022-10-04T18:47:58;17.10;99.90
11965;DHT22;6042;41.326;19.826;2022-10-04T18:50:35;17.00;99.90
11965;DHT22;6042;41.326;19.826;2022-10-04T18:53:24;17.00;99.90
11965;DHT22;6042;41.326;19.826;2022-10-04T18:56:00;17.00;99.90
11965;DHT22;6042;41.326;19.826;2022-10-04T18:58:57;16.80;99.90
11965;DHT22;6042;41.326;19.826;2022-10-04T19:01:58;16.60;99.90
11965;DHT22;6042;41.326;19.826;2022-10-04T19:04:43;16.70;99.90